createdAt,value
2019-06-08T00:00:42.023Z,74.80
2019-06-08T00:01:42.009Z,75.10
2019-06-08T00:02:41.997Z,75.04
2019-06-08T00:03:41.980Z,75.04
2019-06-08T00:04:41.977Z,75.14
2019-06-08T00:05:41.970Z,75.24
2019-06-08T00:06:41.959Z,75.34
2019-06-08T00:07:41.941Z,75.34
2019-06-08T00:08:41.932Z,75.54
2019-06-08T00:09:41.919Z,75.31
2019-06-08T00:10:41.920Z,75.14
2019-06-08T00:11:41.905Z,75.21
2019-06-08T00:12:41.889Z,75.04
2019-06-08T00:13:41.871Z,75.45
2019-06-08T00:14:41.863Z,75.45
2019-06-08T00:15:41.858Z,75.54
2019-06-08T00:16:41.844Z,75.54
2019-06-08T00:17:41.832Z,75.84
2019-06-08T00:18:41.820Z,75.95
2019-06-08T00:19:41.807Z,76.15
2019-06-08T00:20:41.801Z,76.54
2019-06-08T00:21:41.792Z,76.15
2019-06-08T00:22:41.789Z,76.25
2019-06-08T00:23:41.769Z,76.54
2019-06-08T00:24:41.760Z,75.95
2019-06-08T00:25:48.936Z,76.45
2019-06-08T00:27:24.604Z,76.15
2019-06-08T00:28:30.519Z,76.54
2019-06-08T00:30:05.022Z,76.15
2019-06-08T00:31:15.337Z,76.65
2019-06-08T00:32:48.257Z,76.75
2019-06-08T00:33:54.986Z,76.75
2019-06-08T00:35:29.499Z,76.89
2019-06-08T00:36:36.626Z,77.39
2019-06-08T00:38:11.139Z,77.69
2019-06-08T00:39:11.113Z,77.48
2019-06-08T00:40:11.114Z,77.28
2019-06-08T00:41:11.101Z,77.48
2019-06-08T00:42:11.087Z,77.69
2019-06-08T00:43:11.070Z,77.69
2019-06-08T00:44:11.067Z,77.79
2019-06-08T00:45:11.061Z,77.89
2019-06-08T00:46:11.053Z,77.59
2019-06-08T00:47:11.043Z,77.39
2019-06-08T00:48:19.806Z,77.59
2019-06-08T00:49:52.690Z,77.99
2019-06-08T00:50:52.661Z,78.29
2019-06-08T00:51:52.644Z,77.89
2019-06-08T00:52:52.656Z,78.22
2019-06-08T00:53:52.631Z,78.49
2019-06-08T00:54:52.613Z,78.79
2019-06-08T00:55:52.603Z,78.69
2019-06-08T00:56:52.589Z,78.79
2019-06-08T00:57:52.589Z,78.73
2019-06-08T00:58:52.565Z,78.53
2019-06-08T00:59:52.556Z,78.83
2019-06-08T01:00:52.553Z,78.49
2019-06-08T01:01:52.544Z,78.69
2019-06-08T01:02:52.537Z,78.49
2019-06-08T01:03:52.525Z,78.89
2019-06-08T01:04:52.510Z,78.89
2019-06-08T01:05:52.491Z,79.19
2019-06-08T01:06:52.477Z,78.89
2019-06-08T01:07:52.485Z,78.59
2019-06-08T01:08:52.460Z,78.59
2019-06-08T01:09:52.459Z,78.59
2019-06-08T01:10:52.441Z,78.49
2019-06-08T01:11:52.428Z,78.49
2019-06-08T01:12:52.419Z,78.79
2019-06-08T01:13:52.405Z,78.49
2019-06-08T01:14:52.409Z,78.89
2019-06-08T01:15:52.378Z,78.39
2019-06-08T01:16:52.370Z,78.39
2019-06-08T01:18:02.092Z,78.59
2019-06-08T01:18:53.355Z,78.59
2019-06-08T01:19:52.343Z,78.49
2019-06-08T01:20:52.325Z,78.39
2019-06-08T01:21:52.317Z,78.69
2019-06-08T01:22:52.306Z,78.25
2019-06-08T01:23:52.307Z,78.25
2019-06-08T01:24:52.285Z,78.15
2019-06-08T01:25:52.285Z,78.45
2019-06-08T01:26:52.257Z,78.39
2019-06-08T01:27:52.259Z,78.25
2019-06-08T01:28:52.263Z,78.55
2019-06-08T01:29:52.227Z,78.39
2019-06-08T01:30:52.212Z,78.49
2019-06-08T01:31:52.209Z,78.45
2019-06-08T01:32:52.197Z,78.85
2019-06-08T01:33:52.189Z,78.69
2019-06-08T01:34:52.168Z,78.55
2019-06-08T01:35:52.161Z,78.35
2019-06-08T01:36:52.150Z,78.25
2019-06-08T01:37:52.151Z,78.35
2019-06-08T01:38:52.125Z,78.25
2019-06-08T01:39:52.114Z,78.15
2019-06-08T01:40:52.102Z,78.25
2019-06-08T01:41:52.096Z,78.25
2019-06-08T01:42:52.086Z,77.75
2019-06-08T01:43:52.072Z,77.65
2019-06-08T01:44:52.062Z,77.85
2019-06-08T01:45:52.046Z,77.61
2019-06-08T01:46:52.041Z,78.05
2019-06-08T01:47:52.037Z,77.75
2019-06-08T01:48:52.018Z,78.05
2019-06-08T01:49:52.003Z,77.95
2019-06-08T01:50:52.003Z,78.15
2019-06-08T01:51:51.979Z,78.15
2019-06-08T01:52:51.980Z,77.85
2019-06-08T01:53:51.968Z,77.75
2019-06-08T01:54:51.951Z,77.85
2019-06-08T01:55:51.944Z,77.85
2019-06-08T01:56:51.928Z,77.85
2019-06-08T01:57:51.927Z,76.75
2019-06-08T01:58:51.945Z,77.25
2019-06-08T01:59:51.897Z,77.35
2019-06-08T02:00:51.887Z,77.45
2019-06-08T02:01:51.870Z,77.75
2019-06-08T02:02:51.868Z,76.65
2019-06-08T02:03:51.856Z,76.65
2019-06-08T02:04:51.841Z,75.34
2019-06-08T02:05:51.832Z,75.38
2019-06-08T02:06:51.811Z,75.98
2019-06-08T02:07:51.803Z,75.48
2019-06-08T02:08:51.795Z,75.31
2019-06-08T02:09:51.785Z,76.21
2019-06-08T02:10:51.772Z,76.52
2019-06-08T02:11:51.758Z,75.85
2019-06-08T02:12:51.750Z,75.75
2019-06-08T02:13:51.741Z,75.29
2019-06-08T02:14:51.724Z,75.29
2019-06-08T02:15:51.714Z,75.22
2019-06-08T02:16:51.708Z,75.72
2019-06-08T02:17:51.700Z,75.32
2019-06-08T02:18:51.680Z,75.72
2019-06-08T02:19:51.670Z,75.52
2019-06-08T02:20:51.672Z,74.11
2019-06-08T02:21:51.656Z,73.95
2019-06-08T02:22:51.653Z,74.15
2019-06-08T02:23:51.632Z,74.05
2019-06-08T02:24:51.619Z,74.25
2019-06-08T02:25:51.606Z,74.25
2019-06-08T02:26:51.594Z,73.85
2019-06-08T02:27:51.621Z,73.85
2019-06-08T02:28:51.568Z,73.95
2019-06-08T02:29:51.606Z,73.68
2019-06-08T02:30:51.552Z,73.75
2019-06-08T02:31:51.540Z,74.29
2019-06-08T02:32:51.540Z,73.65
2019-06-08T02:33:51.528Z,74.49
2019-06-08T02:34:51.505Z,74.05
2019-06-08T02:35:51.497Z,73.88
2019-06-08T02:36:51.494Z,74.49
2019-06-08T02:37:51.477Z,75.33
2019-06-08T02:38:51.472Z,75.29
2019-06-08T02:39:51.457Z,75.13
2019-06-08T02:40:51.441Z,75.29
2019-06-08T02:41:51.425Z,75.33
2019-06-08T02:42:51.416Z,75.13
2019-06-08T02:43:51.413Z,75.23
2019-06-08T02:44:51.414Z,75.83
2019-06-08T02:45:51.374Z,75.39
2019-06-08T02:46:51.365Z,75.19
2019-06-08T02:47:51.364Z,75.39
2019-06-08T02:49:03.641Z,75.19
2019-06-08T02:49:52.331Z,75.39
2019-06-08T02:50:51.328Z,75.43
2019-06-08T02:51:51.321Z,75.13
2019-06-08T02:52:51.307Z,75.63
2019-06-08T02:53:51.290Z,75.23
2019-06-08T02:54:51.320Z,75.33
2019-06-08T02:55:51.274Z,75.33
2019-06-08T02:56:51.253Z,75.23
2019-06-08T02:57:51.259Z,75.43
2019-06-08T02:58:51.234Z,75.19
2019-06-08T02:59:51.221Z,75.33
2019-06-08T03:00:51.210Z,75.43
2019-06-08T03:01:51.215Z,75.23
2019-06-08T03:02:51.186Z,75.23
2019-06-08T03:03:51.178Z,75.33
2019-06-08T03:04:51.163Z,75.29
2019-06-08T03:05:51.184Z,74.69
2019-06-08T03:06:51.153Z,74.42
2019-06-08T03:07:51.126Z,74.52
2019-06-08T03:08:51.127Z,74.22
2019-06-08T03:09:51.110Z,74.32
2019-06-08T03:10:51.118Z,73.28
2019-06-08T03:11:51.085Z,73.72
2019-06-08T03:12:51.099Z,73.92
2019-06-08T03:13:51.062Z,73.11
2019-06-08T03:14:51.053Z,72.91
2019-06-08T03:15:51.071Z,72.71
2019-06-08T03:16:51.047Z,72.81
2019-06-08T03:17:51.031Z,72.44
2019-06-08T03:18:51.006Z,72.64
2019-06-08T03:19:51.005Z,73.14
2019-06-08T03:20:50.987Z,72.81
2019-06-08T03:21:50.972Z,73.21
2019-06-08T03:22:50.964Z,72.74
2019-06-08T03:23:50.953Z,72.44
2019-06-08T03:24:50.935Z,73.21
2019-06-08T03:25:52.577Z,72.81
2019-06-08T03:26:50.918Z,73.21
2019-06-08T03:27:50.905Z,73.01
2019-06-08T03:28:50.900Z,71.70
2019-06-08T03:29:50.884Z,72.91
2019-06-08T03:30:54.559Z,72.00
2019-06-08T03:31:56.497Z,72.81
2019-06-08T03:32:56.539Z,73.25
2019-06-08T03:33:55.802Z,72.71
2019-06-08T03:34:55.925Z,73.01
2019-06-08T03:35:57.177Z,73.11
2019-06-08T03:36:56.698Z,72.91
2019-06-08T03:37:51.790Z,72.85
2019-06-08T03:38:50.796Z,72.91
2019-06-08T03:39:50.770Z,73.14
2019-06-08T03:40:50.763Z,73.55
2019-06-08T03:41:50.741Z,74.05
2019-06-08T03:42:51.144Z,73.95
2019-06-08T03:43:50.851Z,73.82
2019-06-08T03:44:50.816Z,72.31
2019-06-08T03:45:50.826Z,73.01
2019-06-08T03:46:50.721Z,71.30
2019-06-08T03:47:50.683Z,71.67
2019-06-08T03:48:50.702Z,70.90
2019-06-08T03:49:56.709Z,70.39
2019-06-08T03:50:51.643Z,71.84
2019-06-08T03:51:50.650Z,72.54
2019-06-08T03:52:50.619Z,73.14
2019-06-08T03:53:50.644Z,72.24
2019-06-08T03:54:50.600Z,71.84
2019-06-08T03:55:50.591Z,72.04
2019-06-08T03:56:50.580Z,73.35
2019-06-08T03:57:50.591Z,73.99
2019-06-08T03:58:50.553Z,75.87
2019-06-08T03:59:50.544Z,75.46
2019-06-08T04:00:50.533Z,75.36
2019-06-08T04:01:50.533Z,75.16
2019-06-08T04:02:50.525Z,75.46
2019-06-08T04:03:50.537Z,75.20
2019-06-08T04:04:50.482Z,75.50
2019-06-08T04:05:50.471Z,75.74
2019-06-08T04:06:50.498Z,77.89
2019-06-08T04:07:50.628Z,77.66
2019-06-08T04:08:50.443Z,77.49
2019-06-08T04:09:50.432Z,78.46
2019-06-08T04:10:50.465Z,77.99
2019-06-08T04:11:50.413Z,77.08
2019-06-08T04:12:50.399Z,77.62
2019-06-08T04:13:50.386Z,78.33
2019-06-08T04:14:50.545Z,77.59
2019-06-08T04:15:50.460Z,77.99
2019-06-08T04:16:50.440Z,77.69
2019-06-08T04:17:50.485Z,77.89
2019-06-08T04:18:50.409Z,77.89
2019-06-08T04:20:09.354Z,78.66
2019-06-08T04:20:51.562Z,75.84
2019-06-08T04:21:50.736Z,77.04
2019-06-08T04:22:50.639Z,75.84
2019-06-08T04:23:50.743Z,74.02
2019-06-08T04:24:50.654Z,72.81
2019-06-08T04:25:50.723Z,75.57
2019-06-08T04:26:50.717Z,75.57
2019-06-08T04:27:51.047Z,76.48
2019-06-08T04:28:50.238Z,76.18
2019-06-08T04:29:50.293Z,73.45
2019-06-08T04:30:50.214Z,74.46
2019-06-08T04:31:50.296Z,75.57
2019-06-08T04:32:50.176Z,75.60
2019-06-08T04:33:50.861Z,73.75
2019-06-08T04:34:50.151Z,74.87
2019-06-08T04:35:50.791Z,74.56
2019-06-08T04:36:50.500Z,74.43
2019-06-08T04:37:50.662Z,73.72
2019-06-08T04:38:50.351Z,72.81
2019-06-08T04:39:50.947Z,73.01
2019-06-08T04:40:50.256Z,75.43
2019-06-08T04:41:50.946Z,73.52
2019-06-08T04:42:51.127Z,73.32
2019-06-08T04:43:50.073Z,73.32
2019-06-08T04:44:50.038Z,73.15
2019-06-08T04:45:50.072Z,76.44
2019-06-08T04:46:50.043Z,74.43
2019-06-08T04:47:50.226Z,73.22
2019-06-08T04:48:50.268Z,73.11
2019-06-08T04:49:49.977Z,73.72
2019-06-08T04:50:49.980Z,73.42
2019-06-08T04:51:49.966Z,73.42
2019-06-08T04:52:50.149Z,72.91
2019-06-08T04:53:49.944Z,72.91
2019-06-08T04:54:49.966Z,72.91
2019-06-08T04:55:49.924Z,73.72
2019-06-08T04:56:49.919Z,72.98
2019-06-08T04:57:50.846Z,72.58
2019-06-08T04:58:51.295Z,73.18
2019-06-08T04:59:50.515Z,73.28
2019-06-08T05:00:50.808Z,72.61
2019-06-08T05:01:49.858Z,72.78
2019-06-08T05:02:51.097Z,72.98
2019-06-08T05:03:50.209Z,72.78
2019-06-08T05:04:49.828Z,73.79
2019-06-08T05:05:50.261Z,73.08
2019-06-08T05:06:49.825Z,73.18
2019-06-08T05:07:50.415Z,72.78
2019-06-08T05:08:49.936Z,71.97
2019-06-08T05:09:49.811Z,71.97
2019-06-08T05:10:49.890Z,71.87
2019-06-08T05:11:50.024Z,71.06
2019-06-08T05:12:50.337Z,70.66
2019-06-08T05:13:49.940Z,69.35
2019-06-08T05:14:49.739Z,68.74
2019-06-08T05:15:50.255Z,68.54
2019-06-08T05:16:49.901Z,68.95
2019-06-08T05:17:49.854Z,69.95
2019-06-08T05:18:49.888Z,68.74
2019-06-08T05:19:50.535Z,68.85
2019-06-08T05:20:51.302Z,68.85
2019-06-08T05:21:49.973Z,68.95
2019-06-08T05:22:49.863Z,69.05
2019-06-08T05:23:58.394Z,68.95
2019-06-08T05:24:50.642Z,69.55
2019-06-08T05:25:49.606Z,69.25
2019-06-08T05:26:49.774Z,69.05
2019-06-08T05:27:49.682Z,68.74
2019-06-08T05:28:49.718Z,68.85
2019-06-08T05:29:50.034Z,68.74
2019-06-08T05:30:49.711Z,69.05
2019-06-08T05:31:49.899Z,68.54
2019-06-08T05:32:49.682Z,69.28
2019-06-08T05:33:49.827Z,68.54
2019-06-08T05:34:49.791Z,68.24
2019-06-08T05:35:49.803Z,68.68
2019-06-08T05:36:50.004Z,68.14
2019-06-08T05:37:49.809Z,68.14
2019-06-08T05:38:49.872Z,67.54
2019-06-08T05:39:49.895Z,68.04
2019-06-08T05:40:49.889Z,67.54
2019-06-08T05:41:50.205Z,67.43
2019-06-08T05:42:49.939Z,66.73
2019-06-08T05:43:49.951Z,67.54
2019-06-08T05:44:50.253Z,67.33
2019-06-08T05:45:49.951Z,66.73
2019-06-08T05:46:49.950Z,65.72
2019-06-08T05:47:50.150Z,66.02
2019-06-08T05:48:50.329Z,65.32
2019-06-08T05:49:49.977Z,65.32
2019-06-08T05:51:01.048Z,65.42
2019-06-08T05:51:50.418Z,65.32
2019-06-08T05:52:50.317Z,65.01
2019-06-08T05:53:50.139Z,64.81
2019-06-08T05:54:50.136Z,64.81
2019-06-08T05:55:50.147Z,64.51
2019-06-08T05:56:50.399Z,64.18
2019-06-08T05:57:50.438Z,64.98
2019-06-08T05:58:50.340Z,64.98
2019-06-08T05:59:50.401Z,64.89
2019-06-08T06:00:50.500Z,65.09
2019-06-08T06:01:50.832Z,64.98
2019-06-08T06:02:49.177Z,65.99
2019-06-08T06:03:51.416Z,64.28
2019-06-08T06:04:52.141Z,64.98
2019-06-08T06:05:49.169Z,64.38
2019-06-08T06:06:49.237Z,64.05
2019-06-08T06:07:49.116Z,64.48
2019-06-08T06:08:49.101Z,64.07
2019-06-08T06:09:49.085Z,63.87
2019-06-08T06:10:49.073Z,63.75
2019-06-08T06:11:49.064Z,62.74
2019-06-08T06:12:49.155Z,62.84
2019-06-08T06:13:49.230Z,63.04
2019-06-08T06:14:49.144Z,62.34
2019-06-08T06:15:49.096Z,62.44
2019-06-08T06:16:49.173Z,62.44
2019-06-08T06:17:49.890Z,62.84
2019-06-08T06:18:49.197Z,62.24
2019-06-08T06:19:49.278Z,62.74
2019-06-08T06:20:49.384Z,62.01
2019-06-08T06:21:49.256Z,61.90
2019-06-08T06:22:49.512Z,62.51
2019-06-08T06:23:49.324Z,61.20
2019-06-08T06:24:49.704Z,60.39
2019-06-08T06:25:49.617Z,61.57
2019-06-08T06:26:49.467Z,60.67
2019-06-08T06:27:49.658Z,59.56
2019-06-08T06:28:49.669Z,59.43
2019-06-08T06:29:49.976Z,59.36
2019-06-08T06:30:50.228Z,58.73
2019-06-08T06:31:49.763Z,58.73
2019-06-08T06:32:50.197Z,58.83
2019-06-08T06:33:50.066Z,58.83
2019-06-08T06:34:49.908Z,57.92
2019-06-08T06:35:49.953Z,58.33
2019-06-08T06:36:49.818Z,58.22
2019-06-08T06:37:50.165Z,58.09
2019-06-08T06:38:50.147Z,56.89
2019-06-08T06:39:49.947Z,57.90
2019-06-08T06:40:49.962Z,57.50
2019-06-08T06:41:49.738Z,58.20
2019-06-08T06:42:49.958Z,58.20
2019-06-08T06:43:50.318Z,56.09
2019-06-08T06:44:49.343Z,56.59
2019-06-08T06:45:49.954Z,55.79
2019-06-08T06:46:50.066Z,55.71
2019-06-08T06:47:48.666Z,55.71
2019-06-08T06:48:48.651Z,56.09
2019-06-08T06:49:55.802Z,55.79
2019-06-08T06:51:30.292Z,56.29
2019-06-08T06:52:30.264Z,56.38
2019-06-08T06:54:12.421Z,55.00
2019-06-08T06:55:12.398Z,53.37
2019-06-08T06:56:12.382Z,50.31
2019-06-08T06:57:12.391Z,49.37
2019-06-08T06:58:12.360Z,49.14
2019-06-08T06:59:12.352Z,48.42
2019-06-08T07:00:12.348Z,48.82
2019-06-08T07:01:12.328Z,48.02
2019-06-08T07:02:12.314Z,50.24
2019-06-08T07:03:12.322Z,49.14
2019-06-08T07:04:12.300Z,49.87
2019-06-08T07:05:12.280Z,49.29
2019-06-08T07:06:12.286Z,49.66
2019-06-08T07:07:12.264Z,49.89
2019-06-08T07:08:12.258Z,49.61
2019-06-08T07:09:12.234Z,50.34
2019-06-08T07:10:12.234Z,51.14
2019-06-08T07:11:12.220Z,50.94
2019-06-08T07:12:12.199Z,50.94
2019-06-08T07:13:12.198Z,50.11
2019-06-08T07:14:12.194Z,50.13
2019-06-08T07:15:12.170Z,49.33
2019-06-08T07:16:18.264Z,50.74
2019-06-08T07:17:13.166Z,50.46
2019-06-08T07:18:12.145Z,50.96
2019-06-08T07:19:12.130Z,51.89
2019-06-08T07:20:12.124Z,50.48
2019-06-08T07:21:12.108Z,51.09
2019-06-08T07:22:12.116Z,52.49
2019-06-08T07:23:12.090Z,51.99
2019-06-08T07:24:12.071Z,52.01
2019-06-08T07:25:12.066Z,51.49
2019-06-08T07:26:12.048Z,51.69
2019-06-08T07:27:12.038Z,51.21
2019-06-08T07:28:12.028Z,51.21
2019-06-08T07:29:12.018Z,51.89
2019-06-08T07:30:12.017Z,51.79
2019-06-08T07:31:11.996Z,51.99
2019-06-08T07:32:11.979Z,52.12
2019-06-08T07:33:11.972Z,52.92
2019-06-08T07:34:11.966Z,52.51
2019-06-08T07:35:11.949Z,52.80
2019-06-08T07:36:11.940Z,53.09
2019-06-08T07:37:11.951Z,51.39
2019-06-08T07:38:11.922Z,51.67
2019-06-08T07:39:11.918Z,50.96
2019-06-08T07:40:11.897Z,51.97
2019-06-08T07:41:11.882Z,50.66
2019-06-08T07:42:11.875Z,50.96
2019-06-08T07:43:11.865Z,50.86
2019-06-08T07:44:11.859Z,50.46
2019-06-08T07:45:11.841Z,50.86
2019-06-08T07:46:11.833Z,50.68
2019-06-08T07:47:11.821Z,50.18
2019-06-08T07:48:11.805Z,50.79
2019-06-08T07:49:11.794Z,50.48
2019-06-08T07:50:11.786Z,49.48
2019-06-08T07:51:11.772Z,49.80
2019-06-08T07:52:11.757Z,50.51
2019-06-08T07:53:11.760Z,50.63
2019-06-08T07:54:11.749Z,50.03
2019-06-08T07:55:11.732Z,50.93
2019-06-08T07:56:11.722Z,51.16
2019-06-08T07:57:11.706Z,50.84
2019-06-08T07:58:11.695Z,50.86
2019-06-08T07:59:11.693Z,50.66
2019-06-08T08:00:11.684Z,51.16
2019-06-08T08:01:11.665Z,51.26
2019-06-08T08:02:11.653Z,50.96
2019-06-08T08:03:11.643Z,51.97
2019-06-08T08:04:11.633Z,51.56
2019-06-08T08:05:11.624Z,51.26
2019-06-08T08:06:11.628Z,51.26
2019-06-08T08:07:11.607Z,51.26
2019-06-08T08:08:11.589Z,50.56
2019-06-08T08:09:11.579Z,50.66
2019-06-08T08:10:11.608Z,50.66
2019-06-08T08:11:11.563Z,50.35
2019-06-08T08:12:12.397Z,50.86
2019-06-08T08:13:11.535Z,50.76
2019-06-08T08:14:11.530Z,50.96
2019-06-08T08:15:11.517Z,50.86
2019-06-08T08:16:11.536Z,52.47
2019-06-08T08:17:11.496Z,51.56
2019-06-08T08:18:11.484Z,51.26
2019-06-08T08:19:11.469Z,52.26
2019-06-08T08:20:11.464Z,51.06
2019-06-08T08:21:21.277Z,51.14
2019-06-08T08:22:22.038Z,51.04
2019-06-08T08:23:12.429Z,50.84
2019-06-08T08:24:11.412Z,51.24
2019-06-08T08:25:11.407Z,51.54
2019-06-08T08:26:11.398Z,52.17
2019-06-08T08:27:11.376Z,51.56
2019-06-08T08:28:11.369Z,51.36
2019-06-08T08:29:11.371Z,52.06
2019-06-08T08:30:11.349Z,51.26
2019-06-08T08:31:13.249Z,52.57
2019-06-08T08:32:11.326Z,53.00
2019-06-08T08:33:11.316Z,52.39
2019-06-08T08:34:11.311Z,53.20
2019-06-08T08:35:11.305Z,53.09
2019-06-08T08:36:11.285Z,52.80
2019-06-08T08:37:11.274Z,52.69
2019-06-08T08:38:11.259Z,53.12
2019-06-08T08:39:11.254Z,53.22
2019-06-08T08:40:11.237Z,52.62
2019-06-08T08:41:11.233Z,52.49
2019-06-08T08:42:11.211Z,51.99
2019-06-08T08:43:11.201Z,52.09
2019-06-08T08:44:11.193Z,52.39
2019-06-08T08:45:11.183Z,51.29
2019-06-08T08:46:11.176Z,52.39
2019-06-08T08:47:11.162Z,52.09
2019-06-08T08:48:24.605Z,51.89
2019-06-08T08:49:13.113Z,51.99
2019-06-08T08:50:11.127Z,52.39
2019-06-08T08:51:11.119Z,51.21
2019-06-08T08:52:11.571Z,51.49
2019-06-08T08:53:11.098Z,51.59
2019-06-08T08:54:11.083Z,51.39
2019-06-08T08:55:11.073Z,51.79
2019-06-08T08:56:11.073Z,51.39
2019-06-08T08:57:11.056Z,51.99
2019-06-08T08:58:11.053Z,51.79
2019-06-08T08:59:11.090Z,51.71
2019-06-08T09:00:11.020Z,51.79
2019-06-08T09:01:11.008Z,52.72
2019-06-08T09:02:11.382Z,52.14
2019-06-08T09:03:25.241Z,51.61
2019-06-08T09:04:11.970Z,51.23
2019-06-08T09:05:10.977Z,52.72
2019-06-08T09:06:10.948Z,52.42
2019-06-08T09:07:10.970Z,52.92
2019-06-08T09:08:10.944Z,53.02
2019-06-08T09:09:10.943Z,52.72
2019-06-08T09:10:11.489Z,52.80
2019-06-08T09:11:10.906Z,52.59
2019-06-08T09:12:10.929Z,52.89
2019-06-08T09:13:12.150Z,52.19
2019-06-08T09:14:14.107Z,52.19
2019-06-08T09:15:10.879Z,52.47
2019-06-08T09:16:10.837Z,50.96
2019-06-08T09:17:10.831Z,51.16
2019-06-08T09:18:10.833Z,51.36
2019-06-08T09:19:10.896Z,51.16
2019-06-08T09:20:15.420Z,50.56
2019-06-08T09:21:10.809Z,50.05
2019-06-08T09:22:10.821Z,49.15
2019-06-08T09:23:16.199Z,49.35
2019-06-08T09:24:11.927Z,47.66
2019-06-08T09:25:13.479Z,48.77
2019-06-08T09:26:12.972Z,48.27
2019-06-08T09:27:10.866Z,49.50
2019-06-08T09:28:10.850Z,49.40
2019-06-08T09:29:11.404Z,49.50
2019-06-08T09:30:10.707Z,49.40
2019-06-08T09:31:12.983Z,49.88
2019-06-08T09:32:10.885Z,50.40
2019-06-08T09:33:10.872Z,50.40
2019-06-08T09:34:15.262Z,50.60
2019-06-08T09:35:11.638Z,50.81
2019-06-08T09:36:10.807Z,51.01
2019-06-08T09:37:10.773Z,51.01
2019-06-08T09:38:10.935Z,51.01
2019-06-08T09:39:12.952Z,51.21
2019-06-08T09:40:10.570Z,50.98
2019-06-08T09:41:10.560Z,51.39
2019-06-08T09:42:10.546Z,50.48
2019-06-08T09:43:13.055Z,50.78
2019-06-08T09:44:11.508Z,49.85
2019-06-08T09:45:10.511Z,49.07
2019-06-08T09:46:10.517Z,49.77
2019-06-08T09:47:12.574Z,49.45
2019-06-08T09:48:10.489Z,49.27
2019-06-08T09:49:11.894Z,49.65
2019-06-08T09:50:10.498Z,49.35
2019-06-08T09:51:10.506Z,49.35
2019-06-08T09:52:10.435Z,49.77
2019-06-08T09:53:23.700Z,49.35
2019-06-08T09:54:12.790Z,49.35
2019-06-08T09:55:10.417Z,49.37
2019-06-08T09:56:10.553Z,49.45
2019-06-08T09:57:10.400Z,49.68
2019-06-08T09:58:11.873Z,49.68
2019-06-08T09:59:11.725Z,49.98
2019-06-08T10:00:18.045Z,50.28
2019-06-08T10:01:12.245Z,50.58
2019-06-08T10:02:12.936Z,50.48
2019-06-08T10:03:10.339Z,50.68
2019-06-08T10:04:10.299Z,50.89
2019-06-08T10:05:10.312Z,50.89
2019-06-08T10:06:12.445Z,49.77
2019-06-08T10:07:10.267Z,50.08
2019-06-08T10:08:10.265Z,49.48
2019-06-08T10:09:10.293Z,49.27
2019-06-08T10:10:10.241Z,49.57
2019-06-08T10:11:10.311Z,49.48
2019-06-08T10:12:10.210Z,49.70
2019-06-08T10:13:10.327Z,50.31
2019-06-08T10:14:12.433Z,50.60
2019-06-08T10:15:10.196Z,50.00
2019-06-08T10:16:10.708Z,50.60
2019-06-08T10:17:10.171Z,50.81
2019-06-08T10:18:10.148Z,50.89
2019-06-08T10:19:10.487Z,50.81
2019-06-08T10:20:10.305Z,50.91
2019-06-08T10:21:10.290Z,50.81
2019-06-08T10:22:10.101Z,51.01
2019-06-08T10:23:27.203Z,51.21
2019-06-08T10:24:11.097Z,50.91
2019-06-08T10:25:11.274Z,50.60
2019-06-08T10:26:10.072Z,50.71
2019-06-08T10:27:11.644Z,50.31
2019-06-08T10:28:13.665Z,50.60
2019-06-08T10:29:11.029Z,50.51
2019-06-08T10:30:10.590Z,50.91
2019-06-08T10:31:10.013Z,50.71
2019-06-08T10:32:10.001Z,50.31
2019-06-08T10:33:10.270Z,51.01
2019-06-08T10:34:11.361Z,50.71
2019-06-08T10:35:10.602Z,50.81
2019-06-08T10:36:12.822Z,50.60
2019-06-08T10:37:13.168Z,50.51
2019-06-08T10:38:12.054Z,50.43
2019-06-08T10:39:11.533Z,50.93
2019-06-08T10:40:09.901Z,51.34
2019-06-08T10:41:15.289Z,51.23
2019-06-08T10:42:11.573Z,50.73
2019-06-08T10:43:11.384Z,51.11
2019-06-08T10:44:13.808Z,51.14
2019-06-08T10:45:14.258Z,50.83
2019-06-08T10:46:16.673Z,51.03
2019-06-08T10:47:12.026Z,50.00
2019-06-08T10:48:09.839Z,50.91
2019-06-08T10:49:13.961Z,50.10
2019-06-08T10:50:14.690Z,49.80
2019-06-08T10:51:12.863Z,49.60
2019-06-08T10:52:11.769Z,49.70
2019-06-08T10:53:11.919Z,48.67
2019-06-08T10:54:11.431Z,49.07
2019-06-08T10:55:11.980Z,48.35
2019-06-08T10:56:12.251Z,47.85
2019-06-08T10:57:10.012Z,48.44
2019-06-08T10:58:11.235Z,48.44
2019-06-08T10:59:12.070Z,47.92
2019-06-08T11:00:18.270Z,47.72
2019-06-08T11:01:12.529Z,47.42
2019-06-08T11:02:13.810Z,47.00
2019-06-08T11:03:10.634Z,46.17
2019-06-08T11:04:09.635Z,45.72
2019-06-08T11:05:13.621Z,44.22
2019-06-08T11:06:12.811Z,45.00
2019-06-08T11:07:13.770Z,43.24
2019-06-08T11:08:14.619Z,41.38
2019-06-08T11:09:13.918Z,40.64
2019-06-08T11:10:12.319Z,39.18
2019-06-08T11:11:11.895Z,38.05
2019-06-08T11:12:14.729Z,37.00
2019-06-08T11:13:14.895Z,36.60
2019-06-08T11:14:12.515Z,35.71
2019-06-08T11:15:11.682Z,36.42
2019-06-08T11:16:12.770Z,37.67
2019-06-08T11:17:11.204Z,39.30
2019-06-08T11:18:11.793Z,39.64
2019-06-08T11:19:12.992Z,39.46
2019-06-08T11:20:13.110Z,40.08
2019-06-08T11:21:12.611Z,39.24
2019-06-08T11:22:14.309Z,38.72
2019-06-08T11:23:12.374Z,37.52
2019-06-08T11:24:21.597Z,38.85
2019-06-08T11:25:16.076Z,38.96
2019-06-08T11:26:19.116Z,39.78
2019-06-08T11:27:12.776Z,39.20
2019-06-08T11:28:14.649Z,40.91
2019-06-08T11:29:13.657Z,40.73
2019-06-08T11:30:17.369Z,41.66
2019-06-08T11:31:15.750Z,41.35
2019-06-08T11:32:12.359Z,41.55
2019-06-08T11:33:11.244Z,41.66
2019-06-08T11:34:10.258Z,41.27
2019-06-08T11:35:12.317Z,41.38
2019-06-08T11:36:12.572Z,41.07
2019-06-08T11:37:13.096Z,40.27
2019-06-08T11:38:12.583Z,41.39
2019-06-08T11:39:12.590Z,41.79
2019-06-08T11:40:12.214Z,41.27
2019-06-08T11:41:12.173Z,41.47
2019-06-08T11:42:12.837Z,40.15
2019-06-08T11:43:10.957Z,40.13
2019-06-08T11:44:13.612Z,40.61
2019-06-08T11:45:12.700Z,39.69
2019-06-08T11:46:10.602Z,39.50
2019-06-08T11:47:12.266Z,39.18
2019-06-08T11:48:09.154Z,39.15
2019-06-08T11:49:13.462Z,37.64
2019-06-08T11:50:13.049Z,35.74
2019-06-08T11:51:10.606Z,34.14
2019-06-08T11:52:09.496Z,35.06
2019-06-08T11:53:13.524Z,34.86
2019-06-08T11:54:27.569Z,35.26
2019-06-08T11:55:12.915Z,33.03
2019-06-08T11:56:11.652Z,33.15
2019-06-08T11:57:11.680Z,33.25
2019-06-08T11:58:11.238Z,33.23
2019-06-08T11:59:12.451Z,32.63
2019-06-08T12:00:23.425Z,32.71
2019-06-08T12:01:13.743Z,33.23
2019-06-08T12:02:13.532Z,32.95
2019-06-08T12:03:11.464Z,32.97
2019-06-08T12:04:09.943Z,32.86
2019-06-08T12:05:11.245Z,33.98
2019-06-08T12:06:11.118Z,33.59
2019-06-08T12:07:10.618Z,33.80
2019-06-08T12:08:08.929Z,34.41
2019-06-08T12:09:10.775Z,34.91
2019-06-08T12:10:09.640Z,35.23
2019-06-08T12:11:15.775Z,34.93
2019-06-08T12:12:15.405Z,35.73
2019-06-08T12:13:12.805Z,35.53
2019-06-08T12:14:10.791Z,35.35
2019-06-08T12:15:11.590Z,35.64
2019-06-08T12:16:15.023Z,36.15
2019-06-08T12:17:13.494Z,35.05
2019-06-08T12:18:11.401Z,35.25
2019-06-08T12:19:11.971Z,35.25
2019-06-08T12:20:14.020Z,35.43
2019-06-08T12:21:11.337Z,35.33
2019-06-08T12:22:10.352Z,35.33
2019-06-08T12:23:10.014Z,35.51
2019-06-08T12:24:10.261Z,34.31
2019-06-08T12:25:10.201Z,34.41
2019-06-08T12:26:08.725Z,33.41
2019-06-08T12:27:21.733Z,34.51
2019-06-08T12:28:10.664Z,33.91
2019-06-08T12:29:09.964Z,34.11
2019-06-08T12:30:16.754Z,33.89
2019-06-08T12:31:15.687Z,33.29
2019-06-08T12:32:12.270Z,33.70
2019-06-08T12:33:09.826Z,32.88
2019-06-08T12:34:09.239Z,31.96
2019-06-08T12:35:10.859Z,31.96
2019-06-08T12:36:12.193Z,31.95
2019-06-08T12:37:14.690Z,32.15
2019-06-08T12:38:11.152Z,32.45
2019-06-08T12:39:09.809Z,32.33
2019-06-08T12:40:11.478Z,32.43
2019-06-08T12:41:10.737Z,32.03
2019-06-08T12:42:14.626Z,32.14
2019-06-08T12:43:11.130Z,32.14
2019-06-08T12:44:10.391Z,31.73
2019-06-08T12:45:09.360Z,31.32
2019-06-08T12:46:10.957Z,31.72
2019-06-08T12:47:13.304Z,31.82
2019-06-08T12:48:15.789Z,31.84
2019-06-08T12:49:11.247Z,31.73
2019-06-08T12:50:11.790Z,31.92
2019-06-08T12:51:10.571Z,32.42
2019-06-08T12:52:10.115Z,32.02
2019-06-08T12:53:13.389Z,32.32
2019-06-08T12:54:11.088Z,32.42
2019-06-08T12:55:14.706Z,33.31
2019-06-08T12:56:11.695Z,31.52
2019-06-08T12:57:13.396Z,32.12
2019-06-08T12:58:11.231Z,31.81